Terminal Aerodrome Forecast
Issued by NWS Jackson, KY

Home | Current Version | Previous Version | Text Only | Print | Product List | Glossary On
Versions: 1 2 3 4 5 6 7 8 9 10 11 12 13
000
FTUS43 KJKL 241100
TAFJKL
TAF
KJKL 241124Z 2412/2512 18008G18KT P6SM BKN040
     FM241400 20014G28KT P6SM BKN040
     FM241800 22025G37KT P6SM BKN040
     FM242000 25014G22KT P6SM SCT040
     FM250000 26006KT P6SM SCT035=

USA.gov is the U.S. government's official web portal to all federal, state and local government web resources and services.